createdAt,value
2023-03-17T00:01:57.074Z,12.00
2023-03-17T00:04:27.799Z,13.20
2023-03-17T00:06:55.319Z,12.00
2023-03-17T00:09:25.517Z,15.33
2023-03-17T00:11:52.500Z,11.00
2023-03-17T00:14:20.142Z,13.00
2023-03-17T00:16:52.119Z,14.50
2023-03-17T00:19:30.144Z,15.00
2023-03-17T00:21:59.158Z,14.67
2023-03-17T00:24:26.115Z,10.00
2023-03-17T00:26:53.580Z,12.00
2023-03-17T00:29:20.748Z,12.00
2023-03-17T00:31:48.176Z,9.00
2023-03-17T00:34:18.891Z,13.00
2023-03-17T00:36:51.079Z,10.00
2023-03-17T00:39:18.901Z,12.50
2023-03-17T00:44:13.348Z,10.00
2023-03-17T00:46:41.893Z,12.00
2023-03-17T00:49:21.612Z,10.00
2023-03-17T00:51:49.917Z,6.50
2023-03-17T00:54:18.321Z,7.67
2023-03-17T00:56:46.397Z,8.33
2023-03-17T00:59:30.576Z,7.00
2023-03-17T01:01:58.260Z,8.33
2023-03-17T01:04:26.094Z,11.50
2023-03-17T01:06:53.409Z,9.50
2023-03-17T01:09:26.094Z,9.75
2023-03-17T01:11:55.313Z,6.00
2023-03-17T01:14:22.724Z,12.00
2023-03-17T01:16:50.697Z,8.00
2023-03-17T01:19:20.775Z,12.00
2023-03-17T01:21:48.180Z,7.00
2023-03-17T01:24:15.288Z,11.00
2023-03-17T01:26:43.262Z,9.75
2023-03-17T01:29:10.300Z,11.00
2023-03-17T01:31:37.571Z,12.00
2023-03-17T01:34:06.439Z,10.00
2023-03-17T01:36:34.585Z,8.50
2023-03-17T01:39:01.580Z,9.00
2023-03-17T01:41:32.718Z,7.50
2023-03-17T01:44:00.480Z,10.00
2023-03-17T01:46:31.113Z,9.00
2023-03-17T01:49:06.749Z,8.33
2023-03-17T01:51:57.665Z,8.33
2023-03-17T01:54:28.347Z,6.67
2023-03-17T01:57:02.043Z,8.33
2023-03-17T01:59:36.685Z,7.50
2023-03-17T02:02:09.739Z,6.50
2023-03-17T02:04:38.860Z,10.00
2023-03-17T02:07:06.585Z,3.67
2023-03-17T02:09:35.345Z,9.25
2023-03-17T02:12:05.391Z,8.50
2023-03-17T02:14:33.172Z,4.50
2023-03-17T02:17:00.930Z,9.00
2023-03-17T02:19:27.764Z,7.00
2023-03-17T02:21:58.099Z,9.67
2023-03-17T02:24:39.689Z,7.00
2023-03-17T02:27:24.569Z,5.33
2023-03-17T02:29:52.197Z,12.50
2023-03-17T02:32:20.603Z,9.00
2023-03-17T02:34:49.520Z,9.00
2023-03-17T02:37:17.871Z,12.50
2023-03-17T02:39:47.797Z,15.50
2023-03-17T02:42:15.716Z,16.00
2023-03-17T02:44:43.852Z,17.33
2023-03-17T02:47:13.170Z,16.00
2023-03-17T02:49:41.597Z,12.00
2023-03-17T02:52:09.548Z,12.50
2023-03-17T02:54:36.584Z,10.00
2023-03-17T02:57:03.623Z,6.67
2023-03-17T02:59:31.013Z,7.00
2023-03-17T03:01:57.871Z,6.00
2023-03-17T03:04:24.765Z,5.33
2023-03-17T03:06:51.791Z,6.33
2023-03-17T03:09:20.624Z,7.00
2023-03-17T03:11:47.994Z,7.67
2023-03-17T03:14:16.166Z,6.75
2023-03-17T03:16:43.651Z,10.00
2023-03-17T03:19:11.727Z,6.25
2023-03-17T03:21:39.808Z,15.00
2023-03-17T03:24:07.438Z,12.00
2023-03-17T03:26:34.351Z,12.00
2023-03-17T03:29:05.470Z,12.29
2023-03-17T03:31:32.421Z,12.00
2023-03-17T03:33:59.347Z,10.00
2023-03-17T03:36:27.015Z,9.00
2023-03-17T03:38:54.036Z,12.00
2023-03-17T03:41:22.155Z,9.00
2023-03-17T03:43:48.998Z,9.33
2023-03-17T03:46:16.011Z,9.50
2023-03-17T03:48:42.865Z,13.00
2023-03-17T03:51:10.643Z,14.67
2023-03-17T03:53:38.488Z,15.00
2023-03-17T03:56:26.244Z,12.00
2023-03-17T03:58:53.141Z,12.50
2023-03-17T04:01:20.159Z,12.00
2023-03-17T04:03:48.061Z,10.00
2023-03-17T04:06:15.261Z,7.00
2023-03-17T04:08:42.454Z,12.00
2023-03-17T04:11:09.599Z,5.33
2023-03-17T04:13:36.599Z,7.00
2023-03-17T04:16:03.895Z,7.00
2023-03-17T04:18:31.738Z,9.25
2023-03-17T04:20:58.852Z,9.00
2023-03-17T04:23:26.515Z,7.00
2023-03-17T04:25:54.188Z,10.00
2023-03-17T04:28:22.567Z,9.50
2023-03-17T04:30:50.731Z,8.75
2023-03-17T04:33:20.454Z,10.50
2023-03-17T04:35:48.486Z,10.00
2023-03-17T04:38:16.523Z,10.00
2023-03-17T04:40:43.428Z,9.00
2023-03-17T04:43:10.484Z,11.00
2023-03-17T04:45:37.637Z,11.00
2023-03-17T04:48:05.446Z,11.00
2023-03-17T04:50:33.547Z,10.00
2023-03-17T04:53:00.498Z,11.00
2023-03-17T04:55:27.788Z,9.00
2023-03-17T04:57:55.862Z,9.50
2023-03-17T05:00:23.050Z,7.00
2023-03-17T05:02:51.487Z,9.00
2023-03-17T05:05:18.580Z,12.50
2023-03-17T05:07:47.760Z,13.00
2023-03-17T05:10:14.596Z,13.00
2023-03-17T05:12:41.630Z,15.00
2023-03-17T05:15:08.686Z,15.00
2023-03-17T05:17:37.425Z,15.00
2023-03-17T05:20:06.079Z,15.67
2023-03-17T05:22:35.181Z,18.60
2023-03-17T05:25:03.984Z,16.00
2023-03-17T05:27:33.367Z,13.80
2023-03-17T05:30:03.873Z,15.00
2023-03-17T05:35:19.826Z,13.00
2023-03-17T05:37:47.771Z,16.67
2023-03-17T05:40:14.802Z,16.00
2023-03-17T05:42:42.739Z,13.67
2023-03-17T05:45:13.295Z,16.00
2023-03-17T05:47:40.273Z,15.50
2023-03-17T05:50:08.166Z,12.50
2023-03-17T05:52:35.322Z,9.00
2023-03-17T05:55:03.013Z,18.00
2023-03-17T05:57:31.842Z,10.20
2023-03-17T05:59:58.760Z,16.00
2023-03-17T06:02:26.032Z,13.00
2023-03-17T06:04:53.802Z,7.00
2023-03-17T06:07:20.746Z,13.00
2023-03-17T06:09:47.793Z,15.00
2023-03-17T06:12:14.625Z,4.67
2023-03-17T06:14:41.676Z,13.50
2023-03-17T06:17:08.624Z,13.00
2023-03-17T06:19:35.752Z,12.50
2023-03-17T06:22:02.816Z,12.50
2023-03-17T06:24:30.668Z,9.50
2023-03-17T06:26:57.688Z,10.00
2023-03-17T06:29:24.839Z,9.00
2023-03-17T06:31:51.775Z,10.00
2023-03-17T06:34:21.586Z,10.00
2023-03-17T06:36:49.236Z,12.50
2023-03-17T06:39:18.254Z,10.00
2023-03-17T06:41:45.062Z,9.00
2023-03-17T06:44:13.266Z,10.00
2023-03-17T06:46:40.899Z,10.00
2023-03-17T06:49:09.155Z,8.00
2023-03-17T06:51:37.422Z,6.50
2023-03-17T06:54:04.304Z,8.33
2023-03-17T06:56:31.139Z,7.00
2023-03-17T06:58:59.397Z,6.00
2023-03-17T07:01:27.595Z,8.33
2023-03-17T07:03:55.548Z,9.50
2023-03-17T07:06:23.490Z,7.00
2023-03-17T07:08:51.065Z,4.00
2023-03-17T07:11:18.027Z,7.00
2023-03-17T07:13:45.333Z,12.00
2023-03-17T07:16:15.320Z,6.75
2023-03-17T07:18:42.560Z,6.00
2023-03-17T07:21:09.806Z,9.00
2023-03-17T07:23:37.558Z,6.75
2023-03-17T07:26:05.603Z,11.25
2023-03-17T07:28:33.350Z,9.00
2023-03-17T07:31:02.712Z,10.00
2023-03-17T07:33:29.714Z,6.67
2023-03-17T07:35:56.658Z,10.00
2023-03-17T07:38:23.524Z,8.33
2023-03-17T07:40:50.424Z,9.00
2023-03-17T07:43:17.815Z,6.00
2023-03-17T07:45:46.837Z,8.00
2023-03-17T07:48:15.006Z,6.00
2023-03-17T07:50:42.579Z,6.00
2023-03-17T07:53:09.444Z,3.00
2023-03-17T07:55:39.226Z,6.25
2023-03-17T07:58:07.777Z,6.00
2023-03-17T08:00:35.258Z,6.33
2023-03-17T08:03:10.261Z,6.00
2023-03-17T08:05:38.593Z,6.00
2023-03-17T08:08:07.015Z,3.33
2023-03-17T08:10:34.318Z,6.00
2023-03-17T08:13:01.529Z,5.33
2023-03-17T08:15:28.519Z,6.00
2023-03-17T08:17:55.368Z,7.67
2023-03-17T08:20:22.983Z,6.25
2023-03-17T08:22:49.803Z,7.00
2023-03-17T08:25:17.939Z,8.00
2023-03-17T08:27:44.805Z,6.00
2023-03-17T08:30:13.031Z,6.00
2023-03-17T08:32:40.041Z,6.00
2023-03-17T08:35:07.041Z,7.00
2023-03-17T08:37:33.897Z,6.67
2023-03-17T08:40:01.353Z,3.33
2023-03-17T08:42:28.325Z,6.67
2023-03-17T08:44:55.066Z,3.67
2023-03-17T08:47:22.017Z,4.00
2023-03-17T08:49:48.741Z,4.00
2023-03-17T08:52:17.131Z,6.33
2023-03-17T08:54:43.850Z,6.00
2023-03-17T08:57:10.646Z,5.00
2023-03-17T08:59:37.884Z,5.00
2023-03-17T09:02:05.150Z,4.67
2023-03-17T09:04:32.763Z,4.00
2023-03-17T09:07:03.800Z,7.00
2023-03-17T09:09:35.467Z,7.00
2023-03-17T09:12:05.658Z,8.00
2023-03-17T09:14:42.948Z,8.00
2023-03-17T09:17:11.715Z,6.33
2023-03-17T09:19:38.982Z,6.33
2023-03-17T09:22:05.834Z,4.33
2023-03-17T09:24:32.541Z,5.00
2023-03-17T09:27:01.494Z,5.00
2023-03-17T09:29:28.380Z,6.33
2023-03-17T09:31:57.089Z,4.00
2023-03-17T09:34:25.276Z,4.25
2023-03-17T09:36:56.570Z,5.00
2023-03-17T09:39:24.329Z,5.00
2023-03-17T09:42:01.131Z,4.75
2023-03-17T09:44:53.584Z,4.75
2023-03-17T09:47:48.096Z,4.33
2023-03-17T09:50:26.002Z,4.75
2023-03-17T09:52:57.034Z,8.00
2023-03-17T09:55:30.041Z,4.33
2023-03-17T09:57:58.956Z,4.00
2023-03-17T10:00:31.356Z,5.75
2023-03-17T10:03:00.090Z,5.00
2023-03-17T10:05:32.953Z,4.50
2023-03-17T10:08:30.771Z,10.00
2023-03-17T10:11:15.607Z,6.00
2023-03-17T10:13:49.186Z,5.50
2023-03-17T10:16:22.164Z,5.00
2023-03-17T10:19:07.292Z,4.00
2023-03-17T10:21:41.698Z,3.75
2023-03-17T10:24:11.541Z,5.00
2023-03-17T10:26:50.410Z,3.00
2023-03-17T10:29:22.730Z,7.00
2023-03-17T10:31:52.776Z,3.50
2023-03-17T10:34:25.861Z,3.50
2023-03-17T10:37:09.883Z,5.00
2023-03-17T10:39:52.857Z,4.50
2023-03-17T10:42:29.503Z,3.75
2023-03-17T10:45:01.813Z,5.00
2023-03-17T10:47:38.556Z,3.00
2023-03-17T10:50:15.759Z,11.25
2023-03-17T10:52:43.456Z,6.00
2023-03-17T10:55:19.551Z,3.00
2023-03-17T10:58:02.608Z,5.00
2023-03-17T11:00:35.545Z,6.00
2023-03-17T11:03:15.071Z,6.00
2023-03-17T11:06:05.426Z,5.00
2023-03-17T11:08:53.919Z,6.00
2023-03-17T11:11:30.142Z,3.00
2023-03-17T11:14:05.452Z,3.00
2023-03-17T11:16:53.551Z,5.00
2023-03-17T11:19:29.898Z,5.00
2023-03-17T11:22:10.375Z,5.00
2023-03-17T11:25:05.154Z,6.00
2023-03-17T11:27:35.826Z,5.00
2023-03-17T11:30:27.200Z,5.50
2023-03-17T11:33:28.581Z,5.25
2023-03-17T11:36:03.846Z,5.00
2023-03-17T11:38:49.046Z,4.00
2023-03-17T11:41:46.127Z,6.00
2023-03-17T11:44:34.673Z,4.00
2023-03-17T11:47:04.635Z,10.00
2023-03-17T11:49:40.162Z,5.00
2023-03-17T11:52:45.757Z,3.00
2023-03-17T11:55:43.254Z,2.00
2023-03-17T11:58:29.062Z,6.00
2023-03-17T12:01:00.976Z,4.00
2023-03-17T12:03:47.647Z,4.00
2023-03-17T12:06:18.367Z,3.00
2023-03-17T12:08:57.754Z,7.00
2023-03-17T12:11:28.992Z,2.00
2023-03-17T12:14:01.743Z,7.00
2023-03-17T12:16:48.147Z,6.00
2023-03-17T12:19:44.316Z,6.00
2023-03-17T12:22:26.305Z,4.00
2023-03-17T12:25:12.985Z,5.50
2023-03-17T12:27:55.306Z,4.50
2023-03-17T12:30:31.037Z,6.00
2023-03-17T12:33:12.428Z,7.00
2023-03-17T12:35:40.876Z,5.25
2023-03-17T12:38:38.302Z,5.00
2023-03-17T12:41:08.029Z,6.00
2023-03-17T12:44:17.261Z,4.00
2023-03-17T12:46:52.420Z,3.50
2023-03-17T12:49:34.873Z,3.50
2023-03-17T12:52:10.573Z,6.00
2023-03-17T12:54:44.933Z,3.00
2023-03-17T12:57:18.518Z,9.00
2023-03-17T12:59:49.775Z,7.75
2023-03-17T13:02:28.530Z,5.00
2023-03-17T13:05:00.811Z,5.00
2023-03-17T13:07:56.356Z,4.00
2023-03-17T13:10:48.127Z,6.25
2023-03-17T13:13:44.747Z,6.00
2023-03-17T13:16:37.736Z,6.00
2023-03-17T13:19:34.075Z,6.00
2023-03-17T13:22:01.226Z,4.50
2023-03-17T13:24:52.780Z,5.50
2023-03-17T13:27:34.763Z,6.00
2023-03-17T13:30:25.272Z,5.00
2023-03-17T13:33:20.110Z,4.50
2023-03-17T13:35:46.987Z,6.00
2023-03-17T13:38:35.312Z,4.50
2023-03-17T13:41:20.538Z,4.00
2023-03-17T13:44:24.808Z,5.00
2023-03-17T13:46:52.185Z,5.00
2023-03-17T13:49:19.486Z,5.00
2023-03-17T13:52:02.014Z,5.00
2023-03-17T13:54:33.168Z,10.00
2023-03-17T13:57:36.496Z,7.00
2023-03-17T14:00:28.615Z,5.00
2023-03-17T14:03:12.492Z,4.00
2023-03-17T14:05:41.111Z,4.00
2023-03-17T14:08:32.009Z,3.50
2023-03-17T14:11:22.929Z,6.00
2023-03-17T14:14:31.128Z,5.00
2023-03-17T14:17:13.978Z,9.00
2023-03-17T14:19:43.559Z,5.00
2023-03-17T14:22:26.168Z,5.50
2023-03-17T14:24:55.902Z,5.00
2023-03-17T14:27:24.544Z,4.00
2023-03-17T14:29:52.575Z,5.00
2023-03-17T14:32:22.066Z,5.00
2023-03-17T14:34:56.493Z,5.00
2023-03-17T14:37:23.980Z,4.00
2023-03-17T14:39:56.495Z,4.50
2023-03-17T14:42:31.875Z,4.00
2023-03-17T14:45:18.985Z,4.00
2023-03-17T14:47:46.273Z,4.50
2023-03-17T14:50:22.779Z,5.00
2023-03-17T14:52:50.762Z,4.00
2023-03-17T14:55:19.802Z,5.00
2023-03-17T14:57:53.658Z,4.50
2023-03-17T15:00:34.092Z,8.00
2023-03-17T15:03:05.615Z,4.00
2023-03-17T15:05:41.096Z,5.00
2023-03-17T15:08:42.757Z,7.60
2023-03-17T15:11:18.722Z,6.50
2023-03-17T15:13:49.269Z,8.00
2023-03-17T15:16:24.817Z,5.00
2023-03-17T15:19:06.935Z,8.00
2023-03-17T15:21:35.248Z,8.50
2023-03-17T15:24:31.065Z,8.00
2023-03-17T15:27:02.940Z,7.00
2023-03-17T15:29:31.737Z,8.40
2023-03-17T15:32:14.549Z,6.50
2023-03-17T15:34:42.014Z,7.00
2023-03-17T15:37:15.975Z,7.00
2023-03-17T15:39:44.018Z,6.00
2023-03-17T15:42:15.040Z,6.57
2023-03-17T15:44:42.030Z,8.00
2023-03-17T15:47:15.948Z,8.00
2023-03-17T15:49:46.079Z,11.00
2023-03-17T15:52:25.296Z,11.00
2023-03-17T15:54:53.896Z,13.00
2023-03-17T15:57:22.000Z,18.00
2023-03-17T15:59:49.998Z,13.00
2023-03-17T16:02:33.078Z,9.00
2023-03-17T16:05:15.404Z,6.50
2023-03-17T16:07:42.963Z,8.00
2023-03-17T16:10:27.157Z,12.33
2023-03-17T16:12:55.068Z,10.33
2023-03-17T16:15:28.311Z,8.33
2023-03-17T16:17:59.381Z,9.00
2023-03-17T16:20:37.346Z,7.00
2023-03-17T16:23:18.633Z,9.40
2023-03-17T16:25:46.874Z,7.25
2023-03-17T16:28:17.831Z,8.00
2023-03-17T16:30:48.677Z,10.80
2023-03-17T16:33:27.792Z,15.00
2023-03-17T16:35:56.022Z,11.00
2023-03-17T16:38:26.405Z,12.00
2023-03-17T16:40:59.493Z,10.00
2023-03-17T16:43:33.582Z,12.67
2023-03-17T16:46:03.477Z,13.00
2023-03-17T16:48:31.278Z,10.67
2023-03-17T16:50:58.966Z,14.50
2023-03-17T16:53:28.402Z,12.50
2023-03-17T16:55:56.450Z,11.33
2023-03-17T16:58:32.940Z,15.00
2023-03-17T17:01:02.890Z,15.33
2023-03-17T17:03:31.700Z,14.33
2023-03-17T17:05:59.482Z,14.00
2023-03-17T17:08:26.579Z,13.00
2023-03-17T17:10:55.287Z,7.60
2023-03-17T17:13:22.502Z,19.00
2023-03-17T17:18:24.890Z,22.00
2023-03-17T17:20:54.524Z,22.00
2023-03-17T17:23:26.188Z,19.00
2023-03-17T17:25:54.596Z,20.00
2023-03-17T17:28:24.274Z,22.50
2023-03-17T17:30:54.411Z,23.50
2023-03-17T17:33:23.466Z,27.33
2023-03-17T17:35:52.523Z,29.00
2023-03-17T17:38:24.321Z,26.00
2023-03-17T17:40:54.707Z,30.00
2023-03-17T17:43:24.524Z,30.33
2023-03-17T17:45:53.696Z,36.67
2023-03-17T17:48:24.766Z,46.67
2023-03-17T17:50:55.435Z,47.33
2023-03-17T17:53:24.802Z,41.00
2023-03-17T17:55:53.611Z,40.67
2023-03-17T17:58:24.780Z,51.00
2023-03-17T18:00:57.200Z,44.67
2023-03-17T18:03:27.522Z,42.67
2023-03-17T18:05:57.436Z,44.00
2023-03-17T18:08:28.717Z,42.33
2023-03-17T18:10:57.713Z,45.00
2023-03-17T18:13:26.628Z,42.67
2023-03-17T18:15:55.332Z,44.67
2023-03-17T18:18:24.586Z,43.33
2023-03-17T18:20:55.144Z,42.50
2023-03-17T18:23:24.250Z,44.33
2023-03-17T18:26:00.829Z,45.00
2023-03-17T18:28:30.232Z,46.00
2023-03-17T18:31:07.054Z,45.33
2023-03-17T18:33:36.101Z,45.33
2023-03-17T18:36:08.866Z,54.00
2023-03-17T18:38:38.243Z,52.67
2023-03-17T18:41:07.881Z,56.00
2023-03-17T18:43:37.288Z,49.67
2023-03-17T18:46:06.469Z,51.33
2023-03-17T18:48:36.380Z,51.00
2023-03-17T18:51:05.346Z,44.00
2023-03-17T18:53:38.320Z,45.67
2023-03-17T18:56:07.535Z,46.00
2023-03-17T18:58:36.706Z,46.67
2023-03-17T19:01:08.011Z,54.33
2023-03-17T19:03:36.882Z,47.67
2023-03-17T19:06:15.689Z,52.00
2023-03-17T19:08:44.909Z,54.67
2023-03-17T19:11:16.261Z,55.00
2023-03-17T19:13:45.775Z,47.33
2023-03-17T19:16:15.482Z,51.67
2023-03-17T19:18:44.700Z,47.33
2023-03-17T19:21:13.706Z,49.00
2023-03-17T19:23:42.642Z,52.33
2023-03-17T19:26:11.827Z,54.67
2023-03-17T19:28:40.674Z,57.33
2023-03-17T19:31:09.697Z,57.33
2023-03-17T19:33:38.966Z,55.67
2023-03-17T19:36:11.437Z,61.67
2023-03-17T19:38:41.365Z,63.33
2023-03-17T19:41:10.441Z,68.67
2023-03-17T19:43:41.644Z,68.00
2023-03-17T19:46:12.206Z,67.67
2023-03-17T19:48:42.047Z,66.67
2023-03-17T19:51:11.614Z,65.33
2023-03-17T19:53:40.354Z,64.00
2023-03-17T19:56:10.949Z,69.33
2023-03-17T19:58:39.870Z,71.33
2023-03-17T20:01:08.968Z,69.33
2023-03-17T20:03:42.392Z,67.67
2023-03-17T20:06:13.454Z,66.33
2023-03-17T20:08:43.502Z,56.00
2023-03-17T20:11:13.383Z,61.00
2023-03-17T20:13:42.217Z,61.33
2023-03-17T20:16:12.448Z,59.00
2023-03-17T20:18:41.461Z,66.00
2023-03-17T20:21:14.018Z,63.67
2023-03-17T20:23:42.773Z,69.67
2023-03-17T20:26:11.576Z,65.33
2023-03-17T20:28:43.275Z,65.00
2023-03-17T20:31:12.381Z,65.00
2023-03-17T20:33:41.580Z,61.00
2023-03-17T20:36:10.709Z,71.67
2023-03-17T20:38:39.829Z,75.33
2023-03-17T20:41:15.410Z,82.33
2023-03-17T20:43:47.124Z,91.25
2023-03-17T20:46:19.765Z,97.25
2023-03-17T20:48:52.193Z,103.25
2023-03-17T20:51:21.646Z,111.00
2023-03-17T20:53:53.708Z,100.75
2023-03-17T20:56:25.283Z,114.00
2023-03-17T20:58:56.475Z,98.00
2023-03-17T21:01:26.815Z,110.00
2023-03-17T21:03:56.716Z,115.50
2023-03-17T21:06:30.312Z,113.00
2023-03-17T21:09:00.773Z,112.00
2023-03-17T21:11:30.799Z,112.00
2023-03-17T21:13:59.765Z,109.33
2023-03-17T21:16:31.254Z,109.50
2023-03-17T21:19:01.073Z,94.50
2023-03-17T21:21:30.021Z,110.33
2023-03-17T21:23:59.797Z,107.50
2023-03-17T21:26:30.092Z,116.00
2023-03-17T21:28:59.016Z,109.67
2023-03-17T21:31:28.687Z,113.25
2023-03-17T21:33:59.087Z,125.50
2023-03-17T21:36:28.896Z,125.75
2023-03-17T21:38:58.518Z,117.75
2023-03-17T21:41:32.249Z,106.00
2023-03-17T21:44:02.577Z,111.00
2023-03-17T21:46:33.590Z,104.25
2023-03-17T21:49:03.642Z,111.00
2023-03-17T21:51:33.368Z,118.75
2023-03-17T21:54:04.346Z,115.50
2023-03-17T21:56:34.089Z,128.50
2023-03-17T21:59:04.201Z,121.25
2023-03-17T22:01:34.956Z,131.25
2023-03-17T22:04:04.528Z,137.00
2023-03-17T22:06:34.697Z,137.75
2023-03-17T22:09:05.679Z,148.25
2023-03-17T22:11:35.457Z,148.25
2023-03-17T22:14:04.695Z,144.75
2023-03-17T22:16:34.433Z,138.50
2023-03-17T22:19:04.208Z,133.25
2023-03-17T22:21:33.991Z,127.00
2023-03-17T22:24:04.101Z,134.50
2023-03-17T22:26:33.106Z,75.67
2023-03-17T22:29:02.214Z,117.33
2023-03-17T22:31:31.975Z,104.25
2023-03-17T22:34:02.249Z,104.33
2023-03-17T22:36:32.406Z,106.00
2023-03-17T22:39:01.868Z,106.67
2023-03-17T22:41:31.732Z,111.00
2023-03-17T22:44:00.991Z,94.33
2023-03-17T22:46:30.915Z,108.50
2023-03-17T22:48:59.939Z,96.33
2023-03-17T22:51:28.839Z,98.67
2023-03-17T22:53:58.346Z,83.00
2023-03-17T22:56:27.678Z,91.33
2023-03-17T22:58:56.960Z,105.00
2023-03-17T23:01:27.514Z,94.25
2023-03-17T23:03:56.476Z,103.33
2023-03-17T23:06:25.887Z,106.33
2023-03-17T23:08:54.925Z,97.00
2023-03-17T23:11:26.236Z,100.75
2023-03-17T23:13:55.381Z,88.00
2023-03-17T23:16:25.001Z,92.00
2023-03-17T23:18:54.010Z,91.67
2023-03-17T23:21:43.033Z,97.67
2023-03-17T23:24:12.432Z,82.67
2023-03-17T23:27:00.072Z,102.33
2023-03-17T23:29:29.289Z,103.00
2023-03-17T23:32:00.640Z,100.25
2023-03-17T23:34:29.819Z,103.67
2023-03-17T23:36:59.953Z,88.50
2023-03-17T23:39:29.261Z,83.67
2023-03-17T23:41:58.161Z,80.33
2023-03-17T23:44:27.548Z,75.00
2023-03-17T23:46:56.284Z,72.00
2023-03-17T23:49:25.577Z,55.67
2023-03-17T23:51:54.731Z,70.67
2023-03-17T23:54:24.189Z,68.00
2023-03-17T23:56:53.099Z,71.33
2023-03-17T23:59:21.973Z,69.67
